Share

Manisa, Turkey

Adnan Menderes (LTBJ) Elev 394 ft | 38.29 °N, 27.15 °E | Change Station

Current weather conditions updated 32 minutes ago

Mostly Cloudy
Mostly Cloudy
55 °F
Feels Like 55 °F
N
15
Wind Variable Wind from SSE
Sunrise 6:30 AM
Sunset 7:49 PM
Moon Waning Gibbous

Tomorrow is forecast to be nearly the same temperature as today. Light rain.

Pressure 29.80 in
Visibility 6.2 miles
Clouds Few 2500 ft
Mostly Cloudy 3000 ft
Dew Point 45 °F
Humidity 67%
Rainfall 0.00 in
Snow Depth Not available.
UV 0 out of 16
Pollen Not available.
Air Quality Not available.
Flu Activity Not available.
METAR LTBJ 181750Z 16013KT 9999 FEW025TCU BKN030 13/07 Q1009 NOSIG

More Conditions Fewer Conditions

Pressure 29.80 in
Visibility 6.2 miles
Clouds Few 2500 ft
Mostly Cloudy 3000 ft
Dew Point 45 °F
Humidity 67%
Rainfall 0.00 in
Snow Depth Not available.
UV 0 out of 16
Pollen Not available.
Air Quality Not available.
Flu Activity Not available.
METAR LTBJ 181750Z 16013KT 9999 FEW025TCU BKN030 13/07 Q1009 NOSIG

More Conditions Fewer Conditions

10-Day Weather Forecast

Almanac

Astronomy

Apr. 18, 2014 Rise Set
Actual Time 6:30 AM EEST 7:49 PM EEST
Civil Twilight 6:02 AM EEST 8:17 PM EEST
Nautical Twilight 5:29 AM EEST 8:50 PM EEST
Astronomical Twilight 4:55 AM EEST 9:25 PM EEST
Moon 11:14 PM EEST 8:36 AM EEST
Length of Visible Light 14h 14m
Length of Day
13h 19m
Tomorrow will be 2m 22s longer.
Waning Gibbous, 86% of the Moon is Illuminated
Today
Waning Gibbous
Apr 22
Last Quarter
Apr 29
New
May 6
First Quarter
May 14
Full

Today's Extremes

Country Highs Country Lows

Community

  • What's for Lunch?
    What's for Lunch?
  • SUNRISE THROUGH THE TREES.
    SUNRISE THROUGH THE TREES.
  • Dog Wood Blossoms
    Dog Wood Blossoms
  • Morning Light
    Morning Light
  • New Day
    New Day

WunderPhotos

Upload Photos

1,702,449 photos uploaded!

Nearby

Snow Depth

Not available.

Coastal Water Temperatures

Place Temperature
No Stations Reporting

Earthquake Activity

City Distance Mag. Time & Date
No recent earthquake activity has been reported nearby.
Minimum magnitude displayed is 2.5.

Nearby Weather Stations

There are no personal weather stations in this area.

What do you think?

We're not finished. Please let us know what you like, what you don't like, and what you are still missing.